SLTR

Teniente Av. Jorge Henrich Arauz Airport

Trinidad, Bolivia
TAF SLTR 162200Z 1700/1724 00000KT 9999 FEW015 SCT070 TX35/1720Z TN22 /1720Z BECMG 1715/1718 33010KT SCT020
Issued Valid From Valid To
Oct-16 @ 22:00 UTC
(3 hours ago)
Oct-17 @ 00:00 UTC
(55 minutes ago)
Oct-18 @ 00:00 UTC
(in 23 hours)
Oct-17 @ 00:00 to Oct-17 @ 15:00
TAF SLTR 162200Z 1700/1724 00000KT 9999 FEW015 SCT070 TX35/1720Z TN22 /1720Z
Visibility Clouds
10,000+ meters
  • Few at 1,500' AGL
  • Scattered at 7,000' AGL
Becoming Oct-17 @ 15:00 to Oct-18 @ 00:00
BECMG 1715/1718 33010KT SCT020
Wind Visibility Clouds
330° at 10 knots 10,000+ meters
  • Scattered at 2,000' AGL
TAF SLTR 162200Z 1700/1724 00000KT 9999 FEW015 SCT070 TX35/1720Z TN22 /1720Z BECMG 1715/1718 33010KT SCT020
Issued Oct-16 @ 22:00 UTC
(3 hours ago)
Valid From Oct-17 @ 00:00 UTC
(55 minutes ago)
Valid To Oct-18 @ 00:00 UTC
(in 23 hours)
Oct-17 @ 00:00 - Oct-17 @ 15:00
Clouds
  • Few at 1,500' AGL
  • Scattered at 7,000' AGL
Becoming Oct-17 @ 15:00 - Oct-18 @ 00:00
Wind Visibility
330° at 10 knots 10,000+ meters
Clouds
  • Scattered at 2,000' AGL